METAR stanice u blizini

 

LYBE - Beograd / Surčin, Srbija
Ažurirano: 05/12/2021 15:30
Slaba kiša, Mist, Pretežno oblačno
Slaba kiša, Mist, Pretežno oblačno
 Pravac vetra IJI
Vetar: IJI 11 km/h
Temperatura: 6°C
Osećaj hladnoće: 4°C
Tačka rose: 5°C
Vlažnost: 93%
Pritisak: 1004 hPa
Pregled: Slaba kiša, Mist
Oblaci: Mostly Cloudy
Vidljivost: 3 km
Cloud details: Mostly Cloudy 1219 m
2021/12/05 14:30 LYBE 051430Z 11006KT 3000 -RA BR BKN040 06/05 Q1004 RERA NOSIG
LYBT - Beograd / Batajnica, Srbija
Ažurirano: 05/12/2021 15:30
Slaba kiša, Pretežno oblačno
Slaba kiša, Pretežno oblačno
 Pravac vetra IJI
Vetar: IJI 20 km/h
Temperatura: 6°C
Osećaj hladnoće: 2°C
Tačka rose: 6°C
Vlažnost: 100%
Pritisak: 1004 hPa
Pregled: Light Rain
Oblaci: Mostly Cloudy
Vidljivost: 8 km
Cloud details: Mostly Cloudy 1219 m
2021/12/05 14:30 LYBT 051430Z 11011KT 8000 -RA BKN040 06/06 Q1004 RERA NOSIG
LYVR - Vršac, Srbija
Ažurirano: 05/12/2021 15:30
Slaba kiša, Delimično oblačno
Slaba kiša, Delimično oblačno
 Pravac vetra JI
Vetar: JI 33 km/h
Temperatura: 8°C
Osećaj hladnoće: 3°C
Tačka rose: 4°C
Vlažnost: 76%
Pritisak: 1004 hPa
Pregled: Light Rain
Oblaci: Partly Cloudy
Vidljivost: 10 km
2021/12/05 14:30 LYVR 051430Z AUTO 13018KT 9999 -RA NSC 08/04 Q1004
 
LYKV - Lađevci, Srbija
Ažurirano: 05/12/2021 15:30
Mostly Cloudy
Mostly Cloudy
 Pravac vetra varies
Vetar: varies 4 km/h
Temperatura: 7°C
Tačka rose: 3°C
Vlažnost: 76%
Pritisak: 1003 hPa
Oblaci: Mostly Cloudy
Vidljivost: 10 km
Cloud details: Mostly Cloudy 1829 m
2021/12/05 14:30 LYKV 051430Z VRB02KT 9999 BKN060 07/03 Q1003 NOSIG
LYNI - Niš, Srbija
Ažurirano: 05/12/2021 15:30
Vedro
Vedro
 Pravac vetra J
Vetar: J 7 km/h
Temperatura: 11°C
Tačka rose: 5°C
Vlažnost: 67%
Pritisak: 1005 hPa
Pregled: Vedro
Vidljivost: greater than 10 km
2021/12/05 14:30 LYNI 051430Z 17004KT 140V210 CAVOK 11/05 Q1005 NOSIG
BKPR - Priština, Srbija
Ažurirano: 05/12/2021 15:30
Partly Cloudy
Partly Cloudy
 Pravac vetra JJI
Vetar: JJI 15 km/h
Temperatura: 8°C
Osećaj hladnoće: 5°C
Tačka rose: 4°C
Vlažnost: 76%
Pritisak: 1005 hPa
Oblaci: Partly Cloudy
Vidljivost: 10 km
Cloud details: Partly Cloudy 1219 m
Partly Cloudy 2438 m
2021/12/05 14:30 BKPR 051430Z 16008KT 9999 SCT040 SCT080 08/04 Q1005 NOSIG
 
LHPP - Pecs / Pogany, Hungary
Ažurirano: 05/12/2021 15:28
Mist
Mist
 Pravac vetra ISI
Vetar: ISI 15 km/h
Temperatura: 4°C
Osećaj hladnoće: 1°C
Tačka rose: 4°C
Vlažnost: 100%
Pritisak: 1002 hPa
Pregled: Mist
Vidljivost: 3 km
2021/12/05 14:28 LHPP 051428Z AUTO 07008KT 2500 BR ////// 04/04 Q1002
LHUD - Szeged, Hungary
Ažurirano: 04/07/2019 01:45
NOT Current
Vedro
Vedro
 Pravac vetra S
Vetar: S 7 km/h
Temperatura: 18°C
Tačka rose: 13°C
Vlažnost: 73%
Pritisak: 1019 hPa
Pregled: Vedro
Vidljivost: greater than 10 km
2019/07/03 23:45 LHUD 032345Z 35004KT CAVOK 18/13 Q1019
LRTR - Timisoara, Romania
Ažurirano: 05/12/2021 15:30
Slaba kiša, Delimično oblačno
Slaba kiša, Delimično oblačno
 Pravac vetra IJI
Vetar: IJI 13 km/h
Temperatura: 5°C
Osećaj hladnoće: 2°C
Tačka rose: 5°C
Vlažnost: 100%
Pritisak: 1004 hPa
Pregled: Light Rain
Oblaci: Partly Cloudy
Vidljivost: 7 km
Cloud details: Few Clouds 1006 m
Partly Cloudy 1280 m
2021/12/05 14:30 LRTR 051430Z 11007KT 7000 -RA FEW033 SCT042 05/05 Q1004
 
LRCV - Craiova, Romania
Ažurirano: 05/12/2021 15:30
Mostly Cloudy
Mostly Cloudy
 Pravac vetra JI
Vetar: JI 9 km/h
Temperatura: 2°C
Osećaj hladnoće: -1°C
Tačka rose: 1°C
Vlažnost: 93%
Pritisak: 1008 hPa
Oblaci: Mostly Cloudy
Vidljivost: 6 km
Cloud details: Mostly Cloudy 122 m
2021/12/05 14:30 LRCV 051430Z 13005KT 6000 BKN004 02/01 Q1008
LBSF - Sofia, Bulgaria
Ažurirano: 05/12/2021 15:30
Vedro
Vedro
 Pravac vetra I
Vetar: I 22 km/h
Temperatura: 7°C
Osećaj hladnoće: 4°C
Tačka rose: 3°C
Vlažnost: 76%
Pritisak: 1007 hPa
Pregled: Vedro
Vidljivost: greater than 10 km
2021/12/05 14:30 LBSF 051430Z 10012KT CAVOK 07/03 Q1007 NOSIG
LWSK - Skoplje, Makedonija
Ažurirano: 05/12/2021 15:30
Oblačno
Oblačno
 Pravac vetra calm
Vetar: Tišina
Temperatura: 6°C
Tačka rose: 4°C
Vlažnost: 87%
Pritisak: 1008 hPa
Oblaci: Oblačno
Vidljivost: 10 km
Cloud details: Oblačno 396 m
2021/12/05 14:30 LWSK 051430Z 00000KT 9999 OVC013 06/04 Q1008 NOSIG
 
LYPG - Podgorica, Crna Gora
Ažurirano: 05/12/2021 15:30
Light thunderstorm, Padavine, Pretežno oblačno
Light thunderstorm, Padavine, Pretežno oblačno
 Pravac vetra SSI
Vetar: SSI 13 km/h
Temperatura: 8°C
Osećaj hladnoće: 6°C
Tačka rose: 8°C
Vlažnost: 100%
Pritisak: 1005 hPa
Pregled: Light thunderstorm, Padavine
Oblaci: Mostly Cloudy
Vidljivost: 6 km
Cloud details: Few Clouds 396 m
Few Clouds 610 m
Partly Cloudy 914 m
Mostly Cloudy 2134 m
2021/12/05 14:30 LYPG 051430Z 02007KT 6000 -TSRA FEW013 FEW020CB SCT030 BKN070 08/08 Q1005 TEMPO 16015KT 2000 +TSRA SCT025CB SCT030
LQSA - Sarajevo, Bosna i Hercegovina
Ažurirano: 05/12/2021 15:30
Slaba kiša, Oblačno
Slaba kiša, Oblačno
 Pravac vetra varies
Vetar: varies 4 km/h
Temperatura: 4°C
Tačka rose: 4°C
Vlažnost: 100%
Pritisak: 1002 hPa
Pregled: Light Rain
Oblaci: Oblačno
Vidljivost: 8 km
Cloud details: Few Clouds 91 m
Partly Cloudy 305 m
Oblačno 610 m
2021/12/05 14:30 LQSA 051430Z VRB02KT 8000 -RA FEW003 SCT010 OVC020 04/04 Q1002 NOSIG
LDOS - Osijek, Hrvatksa
Ažurirano: 05/12/2021 15:30
Mostly Cloudy
Mostly Cloudy
 Pravac vetra SI
Vetar: SI 7 km/h
Temperatura: 6°C
Osećaj hladnoće: 4°C
Tačka rose: 6°C
Vlažnost: 100%
Pritisak: 1002 hPa
Oblaci: Mostly Cloudy
Vidljivost: 8 km
Cloud details: Mostly Cloudy 823 m
2021/12/05 14:30 LDOS 051430Z 05004KT 8000 BKN027 06/06 Q1002